createdAt,value
2022-11-13T00:02:46.679Z,43.00
2022-11-13T00:05:36.918Z,42.40
2022-11-13T00:08:26.880Z,40.30
2022-11-13T00:11:20.157Z,44.50
2022-11-13T00:14:09.752Z,42.90
2022-11-13T00:16:59.468Z,44.40
2022-11-13T00:19:48.839Z,42.90
2022-11-13T00:22:38.245Z,42.20
2022-11-13T00:25:28.239Z,43.10
2022-11-13T00:28:17.766Z,38.90
2022-11-13T00:31:08.814Z,42.80
2022-11-13T00:34:25.966Z,41.20
2022-11-13T00:37:08.704Z,48.90
2022-11-13T00:39:59.760Z,44.50
2022-11-13T00:42:51.416Z,48.70
2022-11-13T00:45:47.210Z,46.00
2022-11-13T00:48:37.758Z,45.10
2022-11-13T00:51:28.070Z,48.60
2022-11-13T00:54:20.816Z,44.90
2022-11-13T00:57:10.801Z,47.80
2022-11-13T01:00:01.137Z,44.90
2022-11-13T01:02:51.527Z,47.80
2022-11-13T01:05:42.030Z,44.00
2022-11-13T01:08:31.789Z,45.80
2022-11-13T01:11:24.708Z,47.80
2022-11-13T01:14:14.197Z,46.60
2022-11-13T01:17:03.893Z,49.20
2022-11-13T01:19:53.469Z,43.90
2022-11-13T01:22:43.214Z,47.60
2022-11-13T01:25:34.093Z,48.00
2022-11-13T01:28:23.411Z,46.60
2022-11-13T01:31:17.219Z,46.90
2022-11-13T01:34:14.625Z,50.00
2022-11-13T01:37:04.571Z,48.90
2022-11-13T01:39:54.443Z,45.50
2022-11-13T01:42:43.997Z,45.80
2022-11-13T01:46:02.891Z,46.70
2022-11-13T01:48:59.063Z,48.10
2022-11-13T01:51:53.878Z,49.80
2022-11-13T01:54:48.322Z,44.20
2022-11-13T01:57:38.454Z,44.20
2022-11-13T02:00:28.227Z,48.70
2022-11-13T02:03:18.267Z,48.40
2022-11-13T02:06:13.390Z,48.30
2022-11-13T02:09:03.768Z,49.20
2022-11-13T02:11:54.472Z,48.50
2022-11-13T02:14:47.552Z,49.70
2022-11-13T02:17:43.294Z,55.20
2022-11-13T02:20:42.329Z,45.20
2022-11-13T02:23:41.202Z,45.60
2022-11-13T02:26:32.824Z,49.90
2022-11-13T02:29:22.777Z,43.40
2022-11-13T02:32:12.680Z,45.50
2022-11-13T02:35:02.378Z,45.90
2022-11-13T02:37:51.952Z,45.90
2022-11-13T02:40:41.413Z,45.30
2022-11-13T02:43:30.773Z,48.90
2022-11-13T02:46:20.203Z,45.30
2022-11-13T02:49:09.950Z,49.40
2022-11-13T02:51:59.740Z,47.20
2022-11-13T02:54:49.085Z,47.40
2022-11-13T02:57:39.373Z,46.40
2022-11-13T03:00:29.362Z,50.70
2022-11-13T03:03:41.015Z,49.80
2022-11-13T03:06:29.114Z,45.90
2022-11-13T03:09:18.468Z,48.20
2022-11-13T03:12:09.615Z,46.00
2022-11-13T03:18:06.888Z,44.90
2022-11-13T03:20:56.738Z,40.80
2022-11-13T03:23:48.368Z,45.80
2022-11-13T03:26:41.326Z,45.10
2022-11-13T03:29:31.255Z,41.10
2022-11-13T03:32:21.673Z,41.50
2022-11-13T03:35:12.543Z,47.20
2022-11-13T03:38:02.693Z,43.50
2022-11-13T03:40:53.129Z,39.00
2022-11-13T03:43:44.096Z,42.30
2022-11-13T03:46:33.539Z,46.50
2022-11-13T03:49:22.809Z,43.00
2022-11-13T03:52:12.560Z,47.90
2022-11-13T03:55:03.395Z,43.70
2022-11-13T03:57:53.715Z,46.30
2022-11-13T04:00:44.576Z,48.00
2022-11-13T04:03:34.583Z,46.10
2022-11-13T04:06:24.020Z,46.80
2022-11-13T04:09:13.712Z,45.50
2022-11-13T04:12:03.589Z,47.20
2022-11-13T04:14:53.483Z,43.30
2022-11-13T04:17:43.168Z,47.70
2022-11-13T04:20:33.588Z,46.90
2022-11-13T04:23:23.113Z,45.50
2022-11-13T04:26:12.547Z,46.70
2022-11-13T04:29:01.738Z,56.70
2022-11-13T04:31:51.338Z,47.60
2022-11-13T04:34:41.345Z,56.10
2022-11-13T04:37:31.414Z,51.80
2022-11-13T04:40:21.398Z,52.70
2022-11-13T04:43:11.393Z,51.00
2022-11-13T04:46:02.764Z,48.40
2022-11-13T04:48:54.899Z,55.60
2022-11-13T04:51:44.923Z,57.00
2022-11-13T04:54:34.370Z,56.50
2022-11-13T04:57:23.947Z,50.50
2022-11-13T05:00:15.868Z,51.80
2022-11-13T05:03:05.537Z,50.00
2022-11-13T05:05:55.346Z,47.60
2022-11-13T05:08:45.235Z,47.20
2022-11-13T05:11:34.857Z,45.60
2022-11-13T05:14:24.611Z,45.60
2022-11-13T05:17:14.917Z,45.30
2022-11-13T05:20:05.128Z,45.70
2022-11-13T05:22:54.556Z,44.30
2022-11-13T05:25:44.651Z,50.80
2022-11-13T05:28:35.110Z,44.70
2022-11-13T05:31:27.754Z,44.00
2022-11-13T05:34:19.367Z,45.70
2022-11-13T05:37:08.857Z,46.20
2022-11-13T05:39:58.287Z,47.70
2022-11-13T05:42:47.698Z,43.70
2022-11-13T05:45:37.300Z,45.70
2022-11-13T05:48:27.416Z,49.90
2022-11-13T05:51:21.626Z,49.90
2022-11-13T05:54:12.879Z,45.40
2022-11-13T05:57:06.027Z,47.40
2022-11-13T05:59:55.697Z,46.70
2022-11-13T06:02:45.389Z,47.20
2022-11-13T06:05:37.417Z,51.30
2022-11-13T06:08:27.692Z,55.00
2022-11-13T06:11:20.049Z,56.00
2022-11-13T06:14:09.532Z,53.40
2022-11-13T06:16:59.794Z,53.50
2022-11-13T06:19:49.439Z,53.40
2022-11-13T06:22:39.440Z,52.00
2022-11-13T06:25:30.999Z,52.20
2022-11-13T06:28:23.041Z,54.10
2022-11-13T06:31:18.244Z,52.10
2022-11-13T06:34:08.561Z,52.30
2022-11-13T06:36:59.701Z,54.40
2022-11-13T06:39:51.079Z,49.90
2022-11-13T06:42:40.903Z,49.20
2022-11-13T06:45:30.485Z,52.30
2022-11-13T06:48:19.914Z,50.50
2022-11-13T06:51:14.554Z,53.70
2022-11-13T06:54:04.156Z,47.60
2022-11-13T06:56:53.550Z,51.00
2022-11-13T06:59:43.819Z,49.30
2022-11-13T07:02:33.220Z,44.60
2022-11-13T07:05:23.011Z,45.00
2022-11-13T07:08:14.989Z,47.40
2022-11-13T07:11:04.357Z,39.80
2022-11-13T07:13:53.625Z,41.30
2022-11-13T07:17:07.959Z,38.50
2022-11-13T07:19:55.208Z,39.60
2022-11-13T07:22:46.918Z,35.10
2022-11-13T07:25:58.560Z,38.90
2022-11-13T07:29:06.556Z,40.90
2022-11-13T07:31:59.221Z,37.10
2022-11-13T07:34:51.776Z,42.90
2022-11-13T07:37:42.417Z,35.70
2022-11-13T07:40:32.043Z,34.10
2022-11-13T07:43:21.878Z,33.40
2022-11-13T07:46:11.910Z,35.30
2022-11-13T07:49:01.369Z,35.30
2022-11-13T07:51:51.329Z,34.60
2022-11-13T07:54:43.579Z,35.00
2022-11-13T07:57:32.932Z,36.60
2022-11-13T08:00:22.815Z,33.00
2022-11-13T08:03:37.287Z,35.10
2022-11-13T08:06:32.352Z,28.80
2022-11-13T08:09:45.146Z,33.40
2022-11-13T08:12:35.849Z,34.50
2022-11-13T08:15:26.167Z,38.20
2022-11-13T08:18:15.992Z,35.00
2022-11-13T08:21:18.466Z,31.40
2022-11-13T08:24:08.708Z,29.50
2022-11-13T08:26:58.442Z,33.50
2022-11-13T08:29:51.034Z,29.50
2022-11-13T08:32:43.848Z,28.20
2022-11-13T08:35:33.769Z,26.80
2022-11-13T08:38:23.716Z,22.20
2022-11-13T08:41:14.100Z,26.30
2022-11-13T08:44:06.401Z,25.00
2022-11-13T08:46:56.847Z,25.00
2022-11-13T08:49:46.237Z,27.90
2022-11-13T08:52:36.563Z,20.80
2022-11-13T08:55:32.430Z,26.30
2022-11-13T08:58:24.967Z,25.60
2022-11-13T09:01:18.764Z,29.20
2022-11-13T09:04:08.898Z,29.10
2022-11-13T09:06:58.946Z,36.70
2022-11-13T09:09:48.745Z,26.20
2022-11-13T09:12:44.890Z,25.10
2022-11-13T09:15:35.510Z,23.00
2022-11-13T09:18:25.316Z,29.60
2022-11-13T09:21:14.727Z,21.30
2022-11-13T09:24:06.625Z,43.40
2022-11-13T09:26:56.385Z,36.00
2022-11-13T09:29:46.103Z,45.30
2022-11-13T09:32:35.617Z,32.10
2022-11-13T09:35:35.302Z,28.30
2022-11-13T09:38:25.421Z,26.80
2022-11-13T09:41:21.574Z,24.60
2022-11-13T09:44:21.792Z,20.10
2022-11-13T09:47:21.082Z,17.80
2022-11-13T09:50:20.771Z,22.40
2022-11-13T09:53:14.636Z,21.70
2022-11-13T09:56:17.516Z,18.80
2022-11-13T09:59:22.569Z,21.70
2022-11-13T10:02:23.480Z,17.40
2022-11-13T10:05:24.866Z,17.70
2022-11-13T10:08:18.493Z,19.30
2022-11-13T10:11:17.277Z,22.40
2022-11-13T10:14:18.211Z,22.50
2022-11-13T10:17:16.466Z,20.00
2022-11-13T10:20:13.441Z,20.60
2022-11-13T10:23:10.124Z,19.70
2022-11-13T10:26:12.689Z,17.10
2022-11-13T10:29:14.014Z,20.90
2022-11-13T10:32:20.501Z,20.50
2022-11-13T10:35:29.169Z,22.80
2022-11-13T10:38:25.740Z,21.30
2022-11-13T10:41:17.227Z,22.20
2022-11-13T10:44:24.618Z,27.60
2022-11-13T10:47:31.244Z,18.80
2022-11-13T10:50:30.687Z,19.90
2022-11-13T10:53:20.960Z,18.10
2022-11-13T10:56:26.904Z,20.50
2022-11-13T10:59:20.588Z,21.30
2022-11-13T11:02:20.289Z,19.10
2022-11-13T11:05:20.297Z,18.00
2022-11-13T11:08:12.635Z,22.90
2022-11-13T11:11:25.771Z,19.50
2022-11-13T11:14:21.817Z,22.90
2022-11-13T11:17:18.024Z,19.40
2022-11-13T11:20:19.006Z,20.60
2022-11-13T11:23:18.435Z,21.50
2022-11-13T11:26:15.720Z,20.50
2022-11-13T11:29:20.088Z,18.10
2022-11-13T11:32:18.060Z,26.40
2022-11-13T11:35:15.115Z,21.50
2022-11-13T11:38:10.446Z,21.50
2022-11-13T11:41:15.994Z,19.90
2022-11-13T11:44:16.917Z,21.90
2022-11-13T11:47:12.737Z,20.30
2022-11-13T11:50:03.208Z,21.10
2022-11-13T11:53:02.688Z,23.20
2022-11-13T11:56:11.931Z,19.90
2022-11-13T11:59:32.439Z,21.80
2022-11-13T12:02:54.722Z,24.40
2022-11-13T12:05:54.741Z,25.70
2022-11-13T12:08:53.609Z,21.20
2022-11-13T12:11:51.532Z,25.30
2022-11-13T12:14:50.707Z,19.60
2022-11-13T12:17:51.821Z,19.10
2022-11-13T12:20:51.736Z,18.10
2022-11-13T12:24:01.712Z,16.10
2022-11-13T12:27:10.090Z,18.10
2022-11-13T12:30:15.857Z,22.80
2022-11-13T12:33:24.699Z,23.50
2022-11-13T12:36:16.178Z,23.20
2022-11-13T12:39:15.004Z,24.30
2022-11-13T12:42:14.910Z,27.60
2022-11-13T12:45:15.431Z,24.90
2022-11-13T12:48:22.912Z,24.50
2022-11-13T12:51:22.566Z,26.70
2022-11-13T12:54:35.948Z,26.00
2022-11-13T12:57:49.524Z,22.10
2022-11-13T13:00:42.545Z,24.50
2022-11-13T13:04:19.167Z,22.50
2022-11-13T13:07:25.427Z,25.20
2022-11-13T13:10:24.969Z,23.20
2022-11-13T13:13:42.227Z,24.00
2022-11-13T13:16:32.866Z,21.00
2022-11-13T13:19:30.500Z,21.60
2022-11-13T13:22:34.239Z,21.20
2022-11-13T13:25:30.070Z,20.80
2022-11-13T13:31:39.806Z,20.10
2022-11-13T13:34:39.702Z,21.20
2022-11-13T13:37:38.824Z,24.20
2022-11-13T13:40:41.130Z,21.00
2022-11-13T13:43:45.033Z,21.60
2022-11-13T13:46:42.392Z,27.50
2022-11-13T13:49:40.520Z,23.70
2022-11-13T13:52:39.835Z,23.80
2022-11-13T13:55:33.439Z,18.60
2022-11-13T13:58:29.952Z,27.60
2022-11-13T14:01:29.945Z,23.10
2022-11-13T14:04:26.624Z,23.80
2022-11-13T14:07:29.288Z,22.40
2022-11-13T14:10:22.956Z,22.50
2022-11-13T14:13:16.631Z,21.20
2022-11-13T14:16:11.776Z,20.80
2022-11-13T14:19:08.344Z,21.60
2022-11-13T14:22:02.361Z,18.60
2022-11-13T14:24:55.512Z,17.40
2022-11-13T14:27:59.275Z,23.60
2022-11-13T14:30:58.877Z,20.80
2022-11-13T14:33:52.088Z,23.10
2022-11-13T14:36:42.976Z,19.30
2022-11-13T14:39:35.760Z,22.30
2022-11-13T14:42:37.700Z,24.00
2022-11-13T14:45:29.999Z,19.60
2022-11-13T14:48:27.495Z,22.70
2022-11-13T14:51:26.411Z,23.00
2022-11-13T14:54:53.260Z,22.50
2022-11-13T14:57:50.473Z,23.20
2022-11-13T15:00:45.046Z,25.00
2022-11-13T15:03:36.161Z,20.80
2022-11-13T15:06:28.758Z,24.50
2022-11-13T15:09:19.945Z,29.50
2022-11-13T15:12:13.866Z,21.90
2022-11-13T15:15:05.224Z,23.20
2022-11-13T15:18:01.086Z,22.40
2022-11-13T15:20:56.681Z,22.90
2022-11-13T15:23:46.911Z,21.90
2022-11-13T15:26:41.797Z,20.90
2022-11-13T15:29:32.191Z,24.60
2022-11-13T15:32:25.463Z,26.20
2022-11-13T15:35:18.145Z,25.80
2022-11-13T15:38:09.491Z,30.20
2022-11-13T15:41:04.520Z,32.70
2022-11-13T15:43:58.337Z,32.30
2022-11-13T15:46:48.513Z,31.10
2022-11-13T15:49:56.640Z,28.20
2022-11-13T15:52:57.170Z,30.30
2022-11-13T15:55:50.405Z,32.20
2022-11-13T15:58:43.483Z,32.70
2022-11-13T16:01:39.520Z,29.80
2022-11-13T16:04:44.055Z,36.20
2022-11-13T16:07:44.724Z,29.10
2022-11-13T16:10:38.149Z,37.30
2022-11-13T16:13:30.261Z,44.50
2022-11-13T16:16:25.464Z,36.50
2022-11-13T16:19:23.812Z,36.40
2022-11-13T16:22:21.268Z,30.80
2022-11-13T16:25:14.168Z,34.20
2022-11-13T16:28:04.923Z,35.30
2022-11-13T16:30:56.537Z,38.20
2022-11-13T16:33:53.342Z,32.20
2022-11-13T16:36:44.867Z,37.30
2022-11-13T16:39:35.085Z,41.00
2022-11-13T16:42:30.903Z,38.60
2022-11-13T16:45:23.290Z,34.60
2022-11-13T16:48:15.971Z,34.00
2022-11-13T16:51:06.324Z,38.60
2022-11-13T16:53:59.301Z,32.00
2022-11-13T16:56:54.008Z,32.60
2022-11-13T16:59:58.626Z,29.70
2022-11-13T17:02:52.755Z,33.50
2022-11-13T17:05:46.291Z,33.30
2022-11-13T17:08:37.237Z,30.50
2022-11-13T17:11:28.643Z,29.70
2022-11-13T17:14:21.447Z,24.20
2022-11-13T17:17:15.364Z,29.30
2022-11-13T17:20:05.710Z,28.90
2022-11-13T17:22:59.082Z,26.00
2022-11-13T17:26:06.426Z,28.20
2022-11-13T17:28:58.546Z,32.80
2022-11-13T17:31:49.263Z,43.30
2022-11-13T17:34:41.482Z,32.20
2022-11-13T17:37:32.065Z,25.80
2022-11-13T17:40:28.528Z,27.50
2022-11-13T17:43:18.587Z,27.20
2022-11-13T17:46:11.998Z,23.90
2022-11-13T17:49:01.568Z,30.60
2022-11-13T17:51:55.811Z,27.80
2022-11-13T17:54:51.328Z,31.80
2022-11-13T18:00:30.414Z,32.30
2022-11-13T18:03:35.753Z,36.60
2022-11-13T18:06:26.586Z,37.50
2022-11-13T18:09:16.459Z,42.10
2022-11-13T18:12:06.534Z,35.70
2022-11-13T18:14:58.327Z,38.30
2022-11-13T18:17:48.323Z,50.90
2022-11-13T18:20:41.852Z,44.10
2022-11-13T18:23:33.267Z,43.00
2022-11-13T18:26:32.422Z,56.80
2022-11-13T18:29:57.590Z,43.90
2022-11-13T18:32:49.452Z,54.10
2022-11-13T18:35:45.737Z,49.80
2022-11-13T18:38:36.302Z,48.20
2022-11-13T18:41:26.500Z,55.70
2022-11-13T18:44:16.054Z,42.20
2022-11-13T18:47:09.020Z,59.50
2022-11-13T18:50:00.690Z,46.10
2022-11-13T18:52:52.389Z,44.90
2022-11-13T18:55:42.536Z,50.20
2022-11-13T18:58:38.100Z,52.50
2022-11-13T19:01:30.486Z,41.80
2022-11-13T19:04:23.608Z,39.30
2022-11-13T19:07:14.436Z,44.70
2022-11-13T19:10:05.552Z,46.40
2022-11-13T19:12:55.600Z,42.60
2022-11-13T19:15:45.612Z,42.80
2022-11-13T19:18:35.751Z,43.70
2022-11-13T19:21:28.908Z,51.90
2022-11-13T19:24:18.947Z,45.90
2022-11-13T19:27:10.988Z,50.30
2022-11-13T19:30:04.054Z,49.70
2022-11-13T19:32:54.069Z,51.40
2022-11-13T19:35:44.086Z,47.90
2022-11-13T19:38:34.638Z,50.40
2022-11-13T19:41:25.640Z,52.00
2022-11-13T19:44:16.095Z,54.10
2022-11-13T19:47:06.634Z,48.10
2022-11-13T19:49:56.547Z,45.10
2022-11-13T19:52:46.848Z,44.90
2022-11-13T19:55:36.836Z,46.40
2022-11-13T19:58:26.950Z,47.50
2022-11-13T20:01:19.645Z,46.70
2022-11-13T20:04:12.968Z,40.70
2022-11-13T20:07:04.908Z,51.60
2022-11-13T20:09:55.236Z,49.70
2022-11-13T20:12:46.033Z,48.20
2022-11-13T20:15:35.687Z,46.80
2022-11-13T20:18:26.188Z,43.90
2022-11-13T20:21:16.846Z,44.20
2022-11-13T20:24:07.667Z,42.10
2022-11-13T20:26:57.825Z,45.70
2022-11-13T20:29:47.752Z,36.80
2022-11-13T20:32:41.538Z,41.50
2022-11-13T20:35:31.608Z,59.70
2022-11-13T20:38:22.344Z,43.60
2022-11-13T20:41:13.916Z,42.10
2022-11-13T20:44:04.360Z,34.40
2022-11-13T20:46:54.154Z,38.80
2022-11-13T20:49:44.038Z,29.80
2022-11-13T20:52:34.402Z,29.40
2022-11-13T20:55:27.790Z,29.30
2022-11-13T20:58:17.403Z,33.50
2022-11-13T21:01:10.005Z,27.80
2022-11-13T21:04:00.263Z,32.70
2022-11-13T21:06:53.370Z,28.40
2022-11-13T21:09:48.711Z,38.50
2022-11-13T21:12:39.936Z,33.60
2022-11-13T21:15:30.429Z,31.80
2022-11-13T21:18:21.033Z,29.80
2022-11-13T21:21:14.427Z,37.80
2022-11-13T21:24:04.583Z,31.90
2022-11-13T21:26:55.118Z,36.50
2022-11-13T21:29:44.973Z,38.30
2022-11-13T21:32:34.609Z,36.20
2022-11-13T21:35:25.474Z,37.10
2022-11-13T21:38:15.776Z,35.40
2022-11-13T21:41:25.282Z,40.70
2022-11-13T21:44:15.617Z,33.10
2022-11-13T21:47:06.082Z,38.10
2022-11-13T21:49:55.910Z,35.60
2022-11-13T21:52:45.918Z,35.20
2022-11-13T21:55:35.729Z,36.80
2022-11-13T21:58:34.852Z,28.10
2022-11-13T22:01:33.740Z,34.40
2022-11-13T22:04:41.905Z,28.90
2022-11-13T22:07:32.382Z,27.10
2022-11-13T22:10:22.123Z,30.70
2022-11-13T22:13:16.907Z,31.80
2022-11-13T22:16:08.237Z,31.70
2022-11-13T22:19:03.737Z,25.90
2022-11-13T22:21:55.268Z,24.20
2022-11-13T22:24:44.875Z,26.00
2022-11-13T22:27:34.384Z,28.70
2022-11-13T22:30:23.946Z,26.10
2022-11-13T22:33:13.744Z,22.50
2022-11-13T22:36:09.100Z,21.60
2022-11-13T22:39:00.031Z,22.50
2022-11-13T22:41:49.815Z,21.00
2022-11-13T22:44:55.013Z,18.90
2022-11-13T22:47:45.315Z,20.30
2022-11-13T22:50:37.552Z,21.60
2022-11-13T22:53:27.085Z,18.40
2022-11-13T22:56:17.757Z,20.40
2022-11-13T22:59:09.597Z,20.30
2022-11-13T23:01:59.066Z,20.50
2022-11-13T23:04:48.685Z,21.60
2022-11-13T23:07:38.034Z,22.40
2022-11-13T23:10:28.554Z,20.10
2022-11-13T23:13:18.161Z,15.90
2022-11-13T23:16:08.050Z,15.20
2022-11-13T23:18:58.849Z,21.40
2022-11-13T23:21:49.317Z,17.70
2022-11-13T23:24:39.154Z,22.10
2022-11-13T23:27:28.832Z,17.30
2022-11-13T23:30:18.844Z,20.80
2022-11-13T23:33:08.382Z,18.90
2022-11-13T23:35:57.803Z,18.60
2022-11-13T23:38:47.716Z,23.70
2022-11-13T23:41:37.050Z,23.00
2022-11-13T23:44:27.719Z,19.70
2022-11-13T23:47:17.264Z,23.60
2022-11-13T23:50:07.729Z,22.80
2022-11-13T23:52:57.548Z,23.30
2022-11-13T23:55:46.891Z,23.50
2022-11-13T23:58:36.712Z,22.20
